createdAt,value
2022-12-18T00:00:04.799Z,-5.75
2022-12-18T00:01:04.727Z,-5.75
2022-12-18T00:02:04.887Z,-5.72
2022-12-18T00:03:04.837Z,-5.72
2022-12-18T00:04:04.876Z,-5.76
2022-12-18T00:05:04.660Z,-5.75
2022-12-18T00:06:04.731Z,-5.75
2022-12-18T00:07:04.683Z,-5.74
2022-12-18T00:08:04.646Z,-5.74
2022-12-18T00:09:04.614Z,-5.74
2022-12-18T00:10:04.626Z,-5.72
2022-12-18T00:11:04.599Z,-5.74
2022-12-18T00:13:08.266Z,-5.75
2022-12-18T00:14:04.603Z,-5.78
2022-12-18T00:15:04.562Z,-5.78
2022-12-18T00:16:04.637Z,-5.74
2022-12-18T00:17:04.550Z,-5.75
2022-12-18T00:18:04.579Z,-5.75
2022-12-18T00:19:10.549Z,-5.76
2022-12-18T00:20:04.513Z,-5.78
2022-12-18T00:21:04.504Z,-5.79
2022-12-18T00:22:04.505Z,-5.84
2022-12-18T00:23:04.481Z,-5.82
2022-12-18T00:24:04.510Z,-5.89
2022-12-18T00:25:04.492Z,-5.86
2022-12-18T00:26:04.473Z,-5.90
2022-12-18T00:27:04.465Z,-5.90
2022-12-18T00:28:04.441Z,-5.93
2022-12-18T00:29:04.428Z,-5.95
2022-12-18T00:30:04.445Z,-5.96
2022-12-18T00:31:04.512Z,-5.97
2022-12-18T00:32:04.497Z,-5.99
2022-12-18T00:33:04.386Z,-6.07
2022-12-18T00:34:04.394Z,-6.11
2022-12-18T00:35:04.361Z,-6.14
2022-12-18T00:36:04.382Z,-6.14
2022-12-18T00:37:04.339Z,-6.14
2022-12-18T00:38:04.348Z,-6.18
2022-12-18T00:39:04.324Z,-6.15
2022-12-18T00:40:04.329Z,-6.18
2022-12-18T00:41:04.357Z,-6.20
2022-12-18T00:42:04.313Z,-6.20
2022-12-18T00:43:04.285Z,-6.17
2022-12-18T00:44:04.295Z,-6.17
2022-12-18T00:45:09.083Z,-6.14
2022-12-18T00:46:04.343Z,-6.14
2022-12-18T00:47:04.278Z,-6.14
2022-12-18T00:48:04.256Z,-6.15
2022-12-18T00:49:04.228Z,-6.20
2022-12-18T00:50:04.235Z,-6.23
2022-12-18T00:51:04.207Z,-6.28
2022-12-18T00:52:04.215Z,-6.28
2022-12-18T00:53:04.227Z,-6.28
2022-12-18T00:54:04.191Z,-6.28
2022-12-18T00:55:06.441Z,-6.28
2022-12-18T00:56:04.237Z,-6.26
2022-12-18T00:57:04.150Z,-6.28
2022-12-18T00:58:04.169Z,-6.31
2022-12-18T00:59:04.154Z,-6.29
2022-12-18T01:00:04.150Z,-6.28
2022-12-18T01:01:04.174Z,-6.31
2022-12-18T01:02:04.249Z,-6.34
2022-12-18T01:03:04.204Z,-6.32
2022-12-18T01:04:04.098Z,-6.36
2022-12-18T01:05:04.080Z,-6.36
2022-12-18T01:06:04.110Z,-6.35
2022-12-18T01:07:04.062Z,-6.36
2022-12-18T01:08:04.102Z,-6.38
2022-12-18T01:09:04.046Z,-6.36
2022-12-18T01:10:04.040Z,-6.36
2022-12-18T01:11:04.013Z,-6.35
2022-12-18T01:12:04.032Z,-6.34
2022-12-18T01:13:04.005Z,-6.38
2022-12-18T01:14:03.997Z,-6.42
2022-12-18T01:15:03.983Z,-6.36
2022-12-18T01:16:04.027Z,-6.39
2022-12-18T01:17:03.983Z,-6.41
2022-12-18T01:18:03.971Z,-6.39
2022-12-18T01:19:03.942Z,-6.39
2022-12-18T01:20:03.936Z,-6.39
2022-12-18T01:21:03.919Z,-6.39
2022-12-18T01:22:03.922Z,-6.42
2022-12-18T01:23:03.939Z,-6.41
2022-12-18T01:24:03.905Z,-6.42
2022-12-18T01:25:03.890Z,-6.44
2022-12-18T01:26:03.894Z,-6.44
2022-12-18T01:27:03.869Z,-6.49
2022-12-18T01:28:03.907Z,-6.44
2022-12-18T01:29:03.856Z,-6.46
2022-12-18T01:30:03.850Z,-6.46
2022-12-18T01:31:03.824Z,-6.47
2022-12-18T01:32:03.904Z,-6.49
2022-12-18T01:33:03.817Z,-6.50
2022-12-18T01:34:03.804Z,-6.47
2022-12-18T01:35:03.798Z,-6.47
2022-12-18T01:36:03.801Z,-6.47
2022-12-18T01:37:03.780Z,-6.50
2022-12-18T01:38:03.775Z,-6.47
2022-12-18T01:39:03.742Z,-6.47
2022-12-18T01:40:03.746Z,-6.47
2022-12-18T01:41:03.721Z,-6.47
2022-12-18T01:42:03.728Z,-6.49
2022-12-18T01:43:03.726Z,-6.49
2022-12-18T01:44:03.710Z,-6.49
2022-12-18T01:45:03.696Z,-6.46
2022-12-18T01:46:03.731Z,-6.47
2022-12-18T01:47:03.670Z,-6.46
2022-12-18T01:48:03.693Z,-6.44
2022-12-18T01:49:03.648Z,-6.46
2022-12-18T01:50:03.664Z,-6.42
2022-12-18T01:51:03.638Z,-6.44
2022-12-18T01:52:03.643Z,-6.44
2022-12-18T01:53:03.631Z,-6.42
2022-12-18T01:54:03.610Z,-6.44
2022-12-18T01:55:03.584Z,-6.42
2022-12-18T01:56:03.596Z,-6.39
2022-12-18T01:57:03.568Z,-6.39
2022-12-18T01:58:03.573Z,-6.36
2022-12-18T01:59:03.566Z,-6.36
2022-12-18T02:00:03.566Z,-6.38
2022-12-18T02:01:03.608Z,-6.35
2022-12-18T02:02:03.742Z,-6.35
2022-12-18T02:03:03.538Z,-6.36
2022-12-18T02:04:03.530Z,-6.35
2022-12-18T02:05:03.499Z,-6.32
2022-12-18T02:06:03.504Z,-6.34
2022-12-18T02:07:03.482Z,-6.32
2022-12-18T02:08:03.500Z,-6.34
2022-12-18T02:09:03.461Z,-6.32
2022-12-18T02:10:03.467Z,-6.29
2022-12-18T06:00:44.866Z,-6.86
2022-12-18T06:01:45.893Z,-6.84
2022-12-18T06:02:45.904Z,-6.89
2022-12-18T06:03:46.550Z,-6.86
2022-12-18T06:04:45.801Z,-6.86
2022-12-18T06:05:45.822Z,-6.87
2022-12-18T06:06:45.788Z,-6.87
2022-12-18T06:07:45.790Z,-6.84
2022-12-18T06:08:46.659Z,-6.83
2022-12-18T06:09:45.733Z,-6.83
2022-12-18T06:10:45.780Z,-6.79
2022-12-18T06:11:45.721Z,-6.79
2022-12-18T06:12:45.737Z,-6.83
2022-12-18T06:13:45.701Z,-6.83
2022-12-18T06:14:45.709Z,-6.81
2022-12-18T06:15:51.778Z,-6.83
2022-12-18T06:16:45.683Z,-6.79
2022-12-18T06:17:45.660Z,-6.79
2022-12-18T06:18:45.693Z,-6.78
2022-12-18T06:19:45.644Z,-6.78
2022-12-18T06:20:45.652Z,-6.78
2022-12-18T06:21:45.669Z,-6.78
2022-12-18T06:22:45.618Z,-6.79
2022-12-18T06:23:45.605Z,-6.79
2022-12-18T06:24:45.613Z,-6.79
2022-12-18T06:25:45.587Z,-6.81
2022-12-18T06:26:45.591Z,-6.81
2022-12-18T06:27:45.591Z,-6.81
2022-12-18T06:28:45.596Z,-6.81
2022-12-18T06:29:45.547Z,-6.81
2022-12-18T06:30:45.550Z,-6.78
2022-12-18T06:31:45.603Z,-6.78
2022-12-18T06:32:45.555Z,-6.78
2022-12-18T06:33:45.519Z,-6.76
2022-12-18T06:34:45.580Z,-6.78
2022-12-18T06:35:45.512Z,-6.76
2022-12-18T06:36:45.507Z,-6.78
2022-12-18T06:37:45.484Z,-6.79
2022-12-18T06:38:45.489Z,-6.79
2022-12-18T06:39:45.485Z,-6.78
2022-12-18T06:40:45.469Z,-6.76
2022-12-18T06:41:45.419Z,-6.76
2022-12-18T06:42:45.435Z,-6.78
2022-12-18T06:43:45.412Z,-6.79
2022-12-18T06:44:45.433Z,-6.79
2022-12-18T06:45:45.418Z,-6.81
2022-12-18T06:46:45.390Z,-6.79
2022-12-18T06:47:45.318Z,-6.81
2022-12-18T06:48:45.372Z,-6.81
2022-12-18T06:49:45.306Z,-6.81
2022-12-18T06:50:45.332Z,-6.79
2022-12-18T06:51:45.293Z,-6.79
2022-12-18T06:52:45.365Z,-6.79
2022-12-18T06:53:45.305Z,-6.79
2022-12-18T06:54:45.279Z,-6.79
2022-12-18T06:55:45.241Z,-6.83
2022-12-18T06:56:45.257Z,-6.83
2022-12-18T06:57:45.217Z,-6.81
2022-12-18T06:58:45.227Z,-6.79
2022-12-18T06:59:45.208Z,-6.81
2022-12-18T07:00:45.237Z,-6.79
2022-12-18T07:01:45.405Z,-6.78
2022-12-18T07:02:45.311Z,-6.76
2022-12-18T07:03:45.743Z,-6.76
2022-12-18T07:04:45.177Z,-6.75
2022-12-18T07:05:45.145Z,-6.76
2022-12-18T07:06:45.147Z,-6.76
2022-12-18T07:07:45.114Z,-6.78
2022-12-18T07:08:45.137Z,-6.78
2022-12-18T07:09:45.107Z,-6.76
2022-12-18T07:10:48.188Z,-6.76
2022-12-18T07:11:45.077Z,-6.79
2022-12-18T07:12:45.083Z,-6.79
2022-12-18T07:13:45.062Z,-6.81
2022-12-18T07:14:45.080Z,-6.81
2022-12-18T07:15:45.038Z,-6.81
2022-12-18T07:16:45.080Z,-6.83
2022-12-18T07:17:45.024Z,-6.83
2022-12-18T07:18:45.026Z,-6.81
2022-12-18T07:19:45.054Z,-6.81
2022-12-18T07:20:45.006Z,-6.81
2022-12-18T07:21:44.984Z,-6.84
2022-12-18T07:22:44.993Z,-6.84
2022-12-18T07:23:44.960Z,-6.83
2022-12-18T07:24:44.966Z,-6.84
2022-12-18T07:25:44.957Z,-6.86
2022-12-18T07:26:45.021Z,-6.84
2022-12-18T07:27:44.949Z,-6.86
2022-12-18T07:28:44.941Z,-6.86
2022-12-18T07:29:44.917Z,-6.87
2022-12-18T07:30:44.896Z,-6.86
2022-12-18T07:31:44.961Z,-6.84
2022-12-18T07:32:44.917Z,-6.87
2022-12-18T07:33:44.869Z,-6.87
2022-12-18T07:34:44.890Z,-6.87
2022-12-18T07:35:44.843Z,-6.87
2022-12-18T07:36:44.863Z,-6.87
2022-12-18T07:37:44.827Z,-6.83
2022-12-18T07:38:44.860Z,-6.84
2022-12-18T07:39:44.810Z,-6.84
2022-12-18T07:40:44.815Z,-6.86
2022-12-18T07:41:46.942Z,-6.86
2022-12-18T07:42:44.805Z,-6.84
2022-12-18T07:43:45.009Z,-6.83
2022-12-18T07:44:44.795Z,-6.83
2022-12-18T07:45:44.807Z,-6.81
2022-12-18T07:46:44.750Z,-6.83
2022-12-18T07:47:44.733Z,-6.79
2022-12-18T07:48:46.306Z,-6.81
2022-12-18T07:49:44.748Z,-6.81
2022-12-18T07:50:44.709Z,-6.78
2022-12-18T07:51:44.702Z,-6.76
2022-12-18T07:52:44.712Z,-6.76
2022-12-18T07:53:44.675Z,-6.81
2022-12-18T07:54:44.689Z,-6.81
2022-12-18T07:56:11.184Z,-6.76
2022-12-18T07:56:44.658Z,-6.75
2022-12-18T07:57:55.177Z,-6.75
2022-12-18T07:58:44.646Z,-6.74
2022-12-18T07:59:44.612Z,-6.74
2022-12-18T08:00:44.626Z,-6.72
2022-12-18T08:01:44.661Z,-6.68
2022-12-18T08:02:44.786Z,-6.69
2022-12-18T08:03:44.590Z,-6.66
2022-12-18T08:04:44.581Z,-6.66
2022-12-18T08:05:44.582Z,-6.68
2022-12-18T08:06:47.807Z,-6.65
2022-12-18T08:07:44.568Z,-6.63
2022-12-18T08:08:44.532Z,-6.66
2022-12-18T08:09:44.519Z,-6.63
2022-12-18T08:10:44.519Z,-6.61
2022-12-18T08:11:44.487Z,-6.58
2022-12-18T08:12:44.521Z,-6.56
2022-12-18T08:13:44.491Z,-6.58
2022-12-18T08:14:44.479Z,-6.54
2022-12-18T08:15:44.463Z,-6.54
2022-12-18T08:16:44.513Z,-6.54
2022-12-18T08:17:44.456Z,-6.53
2022-12-18T08:18:44.465Z,-6.50
2022-12-18T08:19:44.413Z,-6.52
2022-12-18T08:20:44.433Z,-6.52
2022-12-18T08:21:44.405Z,-6.52
2022-12-18T08:22:44.415Z,-6.53
2022-12-18T08:23:44.456Z,-6.49
2022-12-18T08:24:44.386Z,-6.49
2022-12-18T08:25:44.360Z,-6.46
2022-12-18T08:27:00.840Z,-6.47
2022-12-18T08:27:44.360Z,-6.44
2022-12-18T08:28:44.378Z,-6.44
2022-12-18T08:29:44.319Z,-6.42
2022-12-18T08:30:44.396Z,-6.44
2022-12-18T08:31:44.400Z,-6.42
2022-12-18T08:32:44.328Z,-6.39
2022-12-18T08:33:44.603Z,-6.38
2022-12-18T08:34:44.295Z,-6.38
2022-12-18T08:35:46.097Z,-6.38
2022-12-18T08:36:44.271Z,-6.38
2022-12-18T08:37:44.233Z,-6.36
2022-12-18T08:38:44.273Z,-6.31
2022-12-18T08:39:44.240Z,-6.32
2022-12-18T08:40:44.237Z,-6.29
2022-12-18T08:41:44.432Z,-6.28
2022-12-18T08:42:44.217Z,-6.26
2022-12-18T08:43:44.191Z,-6.23
2022-12-18T08:44:44.181Z,-6.24
2022-12-18T08:45:44.241Z,-6.21
2022-12-18T08:46:44.238Z,-6.20
2022-12-18T08:47:44.141Z,-6.21
2022-12-18T08:48:44.139Z,-6.21
2022-12-18T08:49:44.127Z,-6.18
2022-12-18T08:50:44.137Z,-6.15
2022-12-18T08:51:44.116Z,-6.17
2022-12-18T08:52:44.106Z,-6.13
2022-12-18T08:53:44.246Z,-6.10
2022-12-18T08:54:44.089Z,-6.07
2022-12-18T08:55:48.623Z,-6.05
2022-12-18T08:56:44.088Z,-6.02
2022-12-18T08:57:44.079Z,-5.99
2022-12-18T08:58:44.066Z,-5.93
2022-12-18T08:59:44.019Z,-5.92
2022-12-18T09:00:44.030Z,-5.90
2022-12-18T09:01:44.100Z,-5.86
2022-12-18T09:02:44.194Z,-5.85
2022-12-18T09:03:44.545Z,-5.86
2022-12-18T09:04:44.019Z,-5.85
2022-12-18T09:05:43.971Z,-5.86
2022-12-18T09:06:43.984Z,-5.86
2022-12-18T09:07:43.959Z,-5.82
2022-12-18T09:08:44.427Z,-5.78
2022-12-18T09:09:43.943Z,-5.78
2022-12-18T09:10:43.934Z,-5.76
2022-12-18T09:11:43.917Z,-5.74
2022-12-18T09:12:43.934Z,-5.74
2022-12-18T09:13:43.940Z,-5.72
2022-12-18T09:14:43.902Z,-5.72
2022-12-18T09:15:43.862Z,-5.72
2022-12-18T09:16:43.991Z,-5.72
2022-12-18T09:17:43.858Z,-5.71
2022-12-18T09:18:44.029Z,-5.67
2022-12-18T09:19:43.833Z,-5.63
2022-12-18T09:20:43.828Z,-5.61
2022-12-18T09:21:48.023Z,-5.64
2022-12-18T09:22:43.817Z,-5.61
2022-12-18T09:23:43.779Z,-5.58
2022-12-18T09:24:43.829Z,-5.56
2022-12-18T09:25:43.768Z,-5.53
2022-12-18T09:26:45.227Z,-5.53
2022-12-18T09:27:43.746Z,-5.53
2022-12-18T09:28:44.067Z,-5.49
2022-12-18T09:29:43.752Z,-5.49
2022-12-18T09:30:43.848Z,-5.49
2022-12-18T09:31:43.726Z,-5.45
2022-12-18T09:32:43.725Z,-5.45
2022-12-18T09:33:43.684Z,-5.42
2022-12-18T09:34:43.697Z,-5.39
2022-12-18T09:35:43.665Z,-5.39
2022-12-18T09:36:43.703Z,-5.39
2022-12-18T09:37:43.676Z,-5.40
2022-12-18T09:38:43.862Z,-5.38
2022-12-18T09:39:43.646Z,-5.38
2022-12-18T09:40:43.646Z,-5.33
2022-12-18T09:41:43.634Z,-5.31
2022-12-18T09:42:43.627Z,-5.28
2022-12-18T09:43:43.633Z,-5.28
2022-12-18T09:44:45.699Z,-5.28
2022-12-18T09:45:43.570Z,-5.28
2022-12-18T09:46:43.697Z,-5.25
2022-12-18T09:47:43.566Z,-5.21
2022-12-18T09:48:43.864Z,-5.21
2022-12-18T09:49:43.532Z,-5.21
2022-12-18T09:50:43.548Z,-5.24
2022-12-18T09:51:43.545Z,-5.19
2022-12-18T09:52:43.517Z,-5.19
2022-12-18T09:53:43.507Z,-5.19
2022-12-18T09:54:43.502Z,-5.18
2022-12-18T09:55:43.874Z,-5.17
2022-12-18T09:56:43.462Z,-5.13
2022-12-18T09:57:43.484Z,-5.10
2022-12-18T09:58:43.713Z,-5.08
2022-12-18T09:59:43.448Z,-5.03
2022-12-18T10:00:43.447Z,-5.02
2022-12-18T10:01:44.768Z,-4.99
2022-12-18T10:02:43.568Z,-4.99
2022-12-18T10:03:43.406Z,-4.98
2022-12-18T10:04:43.426Z,-4.96
2022-12-18T10:05:43.421Z,-4.95
2022-12-18T10:06:43.393Z,-4.92
2022-12-18T10:07:43.374Z,-4.92
2022-12-18T10:08:43.751Z,-4.91
2022-12-18T10:09:43.380Z,-4.89
2022-12-18T10:10:43.351Z,-4.91
2022-12-18T10:11:43.338Z,-4.91
2022-12-18T10:12:43.314Z,-4.87
2022-12-18T10:13:43.350Z,-4.87
2022-12-18T10:14:43.287Z,-4.81
2022-12-18T10:15:43.355Z,-4.81
2022-12-18T10:16:43.294Z,-4.78
2022-12-18T10:17:43.275Z,-4.77
2022-12-18T10:18:43.527Z,-4.75
2022-12-18T10:19:43.261Z,-4.71
2022-12-18T10:20:43.223Z,-4.69
2022-12-18T10:21:43.255Z,-4.67
2022-12-18T10:22:43.217Z,-4.66
2022-12-18T10:23:48.014Z,-4.66
2022-12-18T10:24:43.204Z,-4.66
2022-12-18T10:25:43.198Z,-4.61
2022-12-18T10:26:43.171Z,-4.60
2022-12-18T10:27:43.184Z,-4.55
2022-12-18T10:28:43.655Z,-4.53
2022-12-18T10:29:43.158Z,-4.53
2022-12-18T10:30:43.242Z,-4.50
2022-12-18T10:31:43.231Z,-4.46
2022-12-18T10:32:43.098Z,-4.48
2022-12-18T10:33:43.102Z,-4.48
2022-12-18T10:34:43.071Z,-4.45
2022-12-18T10:35:43.115Z,-4.43
2022-12-18T10:36:43.075Z,-4.42
2022-12-18T10:37:43.077Z,-4.42
2022-12-18T10:38:43.480Z,-4.38
2022-12-18T10:39:43.059Z,-4.35
2022-12-18T10:40:43.024Z,-4.38
2022-12-18T10:41:43.072Z,-4.34
2022-12-18T10:42:43.003Z,-4.32
2022-12-18T10:43:43.010Z,-4.34
2022-12-18T10:44:42.982Z,-4.30
2022-12-18T10:45:42.996Z,-4.30
2022-12-18T10:46:42.993Z,-4.31
2022-12-18T10:47:43.025Z,-4.28
2022-12-18T10:48:43.581Z,-4.27
2022-12-18T10:49:42.960Z,-4.25
2022-12-18T10:51:42.951Z,-4.21
2022-12-18T10:52:45.208Z,-4.21
2022-12-18T10:53:43.029Z,-4.17
2022-12-18T10:54:42.882Z,-4.17
2022-12-18T10:55:42.888Z,-4.16
2022-12-18T10:56:42.873Z,-4.14
2022-12-18T10:57:42.872Z,-4.13
2022-12-18T10:58:43.357Z,-4.10
2022-12-18T10:59:42.906Z,-4.09
2022-12-18T11:00:42.820Z,-4.06
2022-12-18T11:01:42.951Z,-4.04
2022-12-18T11:02:42.995Z,-4.02
2022-12-18T11:03:42.892Z,-4.03
2022-12-18T11:04:42.798Z,-3.99
2022-12-18T11:05:42.791Z,-3.98
2022-12-18T11:06:42.798Z,-3.96
2022-12-18T11:07:42.774Z,-3.93
2022-12-18T11:08:43.252Z,-3.92
2022-12-18T11:09:42.757Z,-3.91
2022-12-18T11:10:42.730Z,-3.88
2022-12-18T11:11:42.821Z,-3.89
2022-12-18T11:12:42.701Z,-3.88
2022-12-18T11:13:42.712Z,-3.85
2022-12-18T11:14:46.894Z,-3.82
2022-12-18T11:15:42.700Z,-3.77
2022-12-18T11:16:57.858Z,-3.74
2022-12-18T11:17:42.676Z,-3.70
2022-12-18T11:18:43.255Z,-3.72
2022-12-18T11:19:42.646Z,-3.70
2022-12-18T11:20:42.722Z,-3.69
2022-12-18T11:21:42.628Z,-3.66
2022-12-18T11:22:42.625Z,-3.63
2022-12-18T11:23:42.638Z,-3.61
2022-12-18T11:24:42.582Z,-3.63
2022-12-18T11:25:42.583Z,-3.63
2022-12-18T11:26:42.577Z,-3.58
2022-12-18T11:27:48.028Z,-3.56
2022-12-18T11:28:43.059Z,-3.52
2022-12-18T11:29:46.622Z,-3.54
2022-12-18T11:30:42.544Z,-3.54
2022-12-18T11:31:42.617Z,-3.48
2022-12-18T11:32:42.508Z,-3.46
2022-12-18T11:33:53.342Z,-3.45
2022-12-18T11:34:42.492Z,-3.46
2022-12-18T11:35:42.486Z,-3.44
2022-12-18T11:36:43.028Z,-3.41
2022-12-18T11:37:42.460Z,-3.40
2022-12-18T11:38:42.809Z,-3.41
2022-12-18T11:39:42.462Z,-3.41
2022-12-18T11:40:42.429Z,-3.38
2022-12-18T11:41:42.416Z,-3.40
2022-12-18T11:42:42.387Z,-3.38
2022-12-18T11:43:42.402Z,-3.38
2022-12-18T11:44:42.421Z,-3.34
2022-12-18T11:45:42.409Z,-3.34
2022-12-18T11:46:42.426Z,-3.34
2022-12-18T11:47:42.361Z,-3.33
2022-12-18T11:48:42.808Z,-3.31
2022-12-18T11:49:42.371Z,-3.31
2022-12-18T11:50:42.333Z,-3.28
2022-12-18T11:51:42.313Z,-3.28
2022-12-18T11:52:42.284Z,-3.25
2022-12-18T11:53:42.296Z,-3.22
2022-12-18T11:54:42.275Z,-3.19
2022-12-18T11:55:42.313Z,-3.17
2022-12-18T11:56:42.243Z,-3.19
2022-12-18T11:57:42.253Z,-3.17
2022-12-18T11:58:42.542Z,-3.19
2022-12-18T11:59:42.253Z,-3.16
2022-12-18T12:00:42.242Z,-3.12
2022-12-18T12:01:44.544Z,-3.12
2022-12-18T12:02:42.301Z,-3.12
2022-12-18T12:03:42.764Z,-3.10
2022-12-18T12:04:42.166Z,-3.09
2022-12-18T12:05:42.182Z,-3.07
2022-12-18T12:06:42.179Z,-3.04
2022-12-18T12:07:42.168Z,-3.02
2022-12-18T12:08:42.142Z,-3.04
2022-12-18T12:09:42.133Z,-3.01
2022-12-18T12:10:42.098Z,-2.99
2022-12-18T12:11:42.129Z,-2.98
2022-12-18T12:12:47.930Z,-2.97
2022-12-18T12:13:42.574Z,-2.97
2022-12-18T12:14:42.068Z,-2.94
2022-12-18T12:16:35.852Z,-2.88
2022-12-18T12:17:37.455Z,-2.89
2022-12-18T12:18:36.732Z,-2.88
2022-12-18T12:19:36.737Z,-2.89
2022-12-18T12:20:36.725Z,-2.86
2022-12-18T12:21:36.723Z,-2.84
2022-12-18T12:22:36.680Z,-2.81
2022-12-18T12:23:36.715Z,-2.80
2022-12-18T12:24:36.690Z,-2.78
2022-12-18T12:25:36.701Z,-2.76
2022-12-18T12:26:36.666Z,-2.74
2022-12-18T12:27:36.667Z,-2.73
2022-12-18T12:28:36.649Z,-2.73
2022-12-18T12:29:36.652Z,-2.70
2022-12-18T12:30:36.633Z,-2.70
2022-12-18T12:31:36.667Z,-2.70
2022-12-18T12:32:36.594Z,-2.66
2022-12-18T12:33:36.618Z,-2.65
2022-12-18T12:34:36.562Z,-2.63
2022-12-18T12:35:36.573Z,-2.63
2022-12-18T12:36:36.542Z,-2.63
2022-12-18T12:37:36.572Z,-2.63
2022-12-18T12:38:36.531Z,-2.59
2022-12-18T12:39:36.541Z,-2.56
2022-12-18T12:40:58.577Z,-2.55
2022-12-18T12:41:36.523Z,-2.53
2022-12-18T12:42:36.518Z,-2.53
2022-12-18T12:43:36.518Z,-2.53
2022-12-18T12:44:36.489Z,-2.52
2022-12-18T12:45:36.522Z,-2.53
2022-12-18T12:46:36.439Z,-2.48
2022-12-18T12:47:36.464Z,-2.47
2022-12-18T12:48:36.428Z,-2.47
2022-12-18T13:13:43.554Z,-2.44
2022-12-18T13:13:48.743Z,-2.42
2022-12-18T13:13:54.581Z,-2.21
2022-12-18T13:14:54.534Z,-2.19
2022-12-18T13:15:54.533Z,-2.22
2022-12-18T13:16:54.509Z,-2.21
2022-12-18T13:17:54.535Z,-2.19
2022-12-18T13:18:54.514Z,-2.21
2022-12-18T13:19:54.502Z,-2.21
2022-12-18T13:20:59.780Z,-2.22
2022-12-18T13:21:54.471Z,-2.22
2022-12-18T13:22:54.438Z,-2.19
2022-12-18T13:23:54.433Z,-2.18
2022-12-18T13:24:54.430Z,-2.18
2022-12-18T13:25:54.488Z,-2.19
2022-12-18T13:26:54.389Z,-2.19
2022-12-18T13:27:54.403Z,-2.18
2022-12-18T13:28:54.394Z,-2.18
2022-12-18T13:29:54.381Z,-2.16
2022-12-18T13:30:55.692Z,-2.18
2022-12-18T13:31:54.359Z,-2.18
2022-12-18T13:32:54.358Z,-2.18
2022-12-18T13:34:25.698Z,-2.16
2022-12-18T13:34:54.341Z,-2.18
2022-12-18T13:35:54.340Z,-2.13
2022-12-18T13:36:54.306Z,-2.13
2022-12-18T13:37:54.321Z,-2.13
2022-12-18T13:38:54.262Z,-2.10
2022-12-18T13:39:54.287Z,-2.10
2022-12-18T13:40:54.303Z,-2.10
2022-12-18T13:41:54.268Z,-2.10
2022-12-18T13:42:54.237Z,-2.10
2022-12-18T13:43:54.274Z,-2.10
2022-12-18T13:44:54.204Z,-2.10
2022-12-18T13:45:54.260Z,-2.08
2022-12-18T13:46:54.185Z,-2.08
2022-12-18T13:47:54.212Z,-2.10
2022-12-18T13:48:54.190Z,-2.08
2022-12-18T13:49:54.203Z,-2.12
2022-12-18T13:50:54.165Z,-2.10
2022-12-18T13:51:54.219Z,-2.08
2022-12-18T13:52:54.144Z,-2.10
2022-12-18T13:53:54.119Z,-2.08
2022-12-18T13:54:54.131Z,-2.10
2022-12-18T13:55:55.038Z,-2.13
2022-12-18T13:56:54.148Z,-2.15
2022-12-18T13:57:54.072Z,-2.13
2022-12-18T13:58:54.108Z,-2.15
2022-12-18T13:59:54.051Z,-2.15
2022-12-18T14:00:54.181Z,-2.16
2022-12-18T14:01:54.245Z,-2.18
2022-12-18T14:02:54.237Z,-2.15
2022-12-18T14:03:54.026Z,-2.16
2022-12-18T14:04:54.041Z,-2.18
2022-12-18T14:05:53.996Z,-2.15
2022-12-18T14:06:54.099Z,-2.15
2022-12-18T14:07:53.997Z,-2.16
2022-12-18T14:08:54.002Z,-2.16
2022-12-18T14:10:01.910Z,-2.15
2022-12-18T14:10:53.965Z,-2.13
2022-12-18T14:11:53.968Z,-2.16
2022-12-18T14:12:53.950Z,-2.13
2022-12-18T14:13:53.941Z,-2.15
2022-12-18T14:14:55.059Z,-2.15
2022-12-18T14:15:53.900Z,-2.15
2022-12-18T14:16:53.997Z,-2.16
2022-12-18T14:17:55.002Z,-2.19
2022-12-18T14:18:53.884Z,-2.16
2022-12-18T14:19:53.880Z,-2.15
2022-12-18T14:20:53.871Z,-2.18
2022-12-18T14:21:53.847Z,-2.15
2022-12-18T14:22:53.837Z,-2.18
2022-12-18T14:23:53.811Z,-2.16
2022-12-18T14:24:53.833Z,-2.18
2022-12-18T14:25:53.797Z,-2.16
2022-12-18T14:26:53.786Z,-2.13
2022-12-18T14:27:53.801Z,-2.13
2022-12-18T14:28:53.799Z,-2.13
2022-12-18T14:29:53.791Z,-2.12
2022-12-18T14:30:53.823Z,-2.13
2022-12-18T14:31:53.742Z,-2.13
2022-12-18T14:32:53.731Z,-2.08
2022-12-18T14:33:53.715Z,-2.12
2022-12-18T14:34:53.716Z,-2.15
2022-12-18T14:35:53.708Z,-2.13
2022-12-18T14:36:53.690Z,-2.13
2022-12-18T14:37:53.664Z,-2.13
2022-12-18T14:38:53.684Z,-2.15
2022-12-18T14:39:53.647Z,-2.15
2022-12-18T14:40:53.694Z,-2.18
2022-12-18T14:41:53.639Z,-2.18
2022-12-18T14:42:53.658Z,-2.18
2022-12-18T14:43:53.622Z,-2.19
2022-12-18T14:45:53.658Z,-2.22
2022-12-18T14:46:53.589Z,-2.22
2022-12-18T14:47:53.571Z,-2.22
2022-12-18T14:48:53.595Z,-2.23
2022-12-18T14:49:53.556Z,-2.23
2022-12-18T14:50:53.552Z,-2.25
2022-12-18T14:51:53.527Z,-2.25
2022-12-18T14:52:53.558Z,-2.26
2022-12-18T14:53:55.091Z,-2.28
2022-12-18T14:54:53.496Z,-2.30
2022-12-18T14:55:53.495Z,-2.30
2022-12-18T14:56:53.487Z,-2.35
2022-12-18T14:57:53.498Z,-2.35
2022-12-18T14:58:53.494Z,-2.34
2022-12-18T14:59:53.456Z,-2.34
2022-12-18T15:00:53.449Z,-2.34
2022-12-18T15:01:53.532Z,-2.35
2022-12-18T15:02:53.562Z,-2.35
2022-12-18T15:03:53.448Z,-2.35
2022-12-18T15:04:53.453Z,-2.35
2022-12-18T15:05:53.377Z,-2.35
2022-12-18T15:06:53.404Z,-2.37
2022-12-18T15:07:53.374Z,-2.40
2022-12-18T15:08:53.374Z,-2.40
2022-12-18T15:09:53.342Z,-2.38
2022-12-18T15:10:53.412Z,-2.38
2022-12-18T15:11:53.319Z,-2.38
2022-12-18T15:12:53.320Z,-2.38
2022-12-18T15:13:53.307Z,-2.40
2022-12-18T15:14:53.312Z,-2.40
2022-12-18T15:15:53.358Z,-2.40
2022-12-18T15:16:53.275Z,-2.41
2022-12-18T15:17:53.256Z,-2.40
2022-12-18T15:18:53.288Z,-2.42
2022-12-18T15:19:53.236Z,-2.42
2022-12-18T15:20:53.293Z,-2.40
2022-12-18T15:21:53.244Z,-2.38
2022-12-18T15:22:53.301Z,-2.40
2022-12-18T15:23:53.198Z,-2.41
2022-12-18T15:24:53.204Z,-2.42
2022-12-18T15:25:53.164Z,-2.42
2022-12-18T15:26:53.215Z,-2.42
2022-12-18T15:27:53.159Z,-2.44
2022-12-18T15:28:53.164Z,-2.47
2022-12-18T15:29:53.146Z,-2.44
2022-12-18T15:30:53.223Z,-2.47
2022-12-18T15:31:53.120Z,-2.47
2022-12-18T15:32:53.158Z,-2.52
2022-12-18T15:33:53.091Z,-2.52
2022-12-18T15:34:53.104Z,-2.52
2022-12-18T15:35:53.088Z,-2.53
2022-12-18T15:36:53.087Z,-2.56
2022-12-18T15:37:53.060Z,-2.56
2022-12-18T15:38:53.078Z,-2.58
2022-12-18T15:39:53.036Z,-2.58
2022-12-18T15:40:53.029Z,-2.60
2022-12-18T15:41:53.030Z,-2.60
2022-12-18T15:42:53.031Z,-2.60
2022-12-18T15:43:53.003Z,-2.60
2022-12-18T15:44:53.018Z,-2.58
2022-12-18T15:45:53.036Z,-2.58
2022-12-18T15:46:52.981Z,-2.58
2022-12-18T15:47:52.947Z,-2.58
2022-12-18T15:48:57.990Z,-2.60
2022-12-18T15:49:52.970Z,-2.62
2022-12-18T15:50:53.013Z,-2.60
2022-12-18T15:51:52.968Z,-2.62
2022-12-18T15:52:52.967Z,-2.62
2022-12-18T15:53:52.929Z,-2.62
2022-12-18T15:54:52.948Z,-2.62
2022-12-18T15:55:56.564Z,-2.62
2022-12-18T15:56:52.945Z,-2.58
2022-12-18T15:57:52.923Z,-2.55
2022-12-18T15:58:52.912Z,-2.58
2022-12-18T15:59:52.873Z,-2.62
2022-12-18T16:00:52.882Z,-2.60
2022-12-18T16:01:52.981Z,-2.62
2022-12-18T16:02:53.180Z,-2.60
2022-12-18T16:03:52.883Z,-2.62
2022-12-18T16:04:52.851Z,-2.60
2022-12-18T16:05:52.826Z,-2.60
2022-12-18T16:07:52.813Z,-2.62
2022-12-18T16:08:52.814Z,-2.62
2022-12-18T16:09:52.826Z,-2.60
2022-12-18T16:10:52.784Z,-2.59
2022-12-18T16:11:52.753Z,-2.62
2022-12-18T16:12:52.777Z,-2.62
2022-12-18T16:13:52.762Z,-2.62
2022-12-18T16:14:52.743Z,-2.62
2022-12-18T16:15:52.786Z,-2.62
2022-12-18T16:16:52.722Z,-2.60
2022-12-18T16:17:52.779Z,-2.63
2022-12-18T16:18:52.721Z,-2.63
2022-12-18T16:19:52.665Z,-2.62
2022-12-18T16:20:52.674Z,-2.60
2022-12-18T16:21:52.670Z,-2.60
2022-12-18T16:22:52.648Z,-2.59
2022-12-18T16:23:52.676Z,-2.62
2022-12-18T16:24:52.648Z,-2.63
2022-12-18T16:25:52.603Z,-2.62
2022-12-18T16:26:52.620Z,-2.63
2022-12-18T16:27:52.587Z,-2.63
2022-12-18T16:28:52.591Z,-2.65
2022-12-18T16:29:52.590Z,-2.66
2022-12-18T16:30:52.661Z,-2.69
2022-12-18T16:31:52.545Z,-2.71
2022-12-18T16:32:52.549Z,-2.71
2022-12-18T16:33:52.524Z,-2.71
2022-12-18T16:34:52.547Z,-2.73
2022-12-18T16:35:52.509Z,-2.71
2022-12-18T16:36:52.505Z,-2.73
2022-12-18T16:37:52.493Z,-2.71
2022-12-18T16:38:52.488Z,-2.74
2022-12-18T16:39:52.460Z,-2.70
2022-12-18T16:40:52.480Z,-2.73
2022-12-18T16:41:52.467Z,-2.71
2022-12-18T16:42:52.482Z,-2.73
2022-12-18T16:43:54.987Z,-2.73
2022-12-18T16:44:52.429Z,-2.71
2022-12-18T16:45:52.396Z,-2.73
2022-12-18T16:46:52.506Z,-2.73
2022-12-18T16:47:52.392Z,-2.74
2022-12-18T16:48:52.419Z,-2.73
2022-12-18T16:49:52.357Z,-2.73
2022-12-18T16:50:52.367Z,-2.74
2022-12-18T16:51:52.340Z,-2.73
2022-12-18T16:52:52.381Z,-2.74
2022-12-18T16:53:52.310Z,-2.71
2022-12-18T16:54:52.325Z,-2.71
2022-12-18T16:55:52.316Z,-2.70
2022-12-18T16:56:52.309Z,-2.73
2022-12-18T16:57:52.269Z,-2.70
2022-12-18T16:58:52.269Z,-2.71
2022-12-18T16:59:52.252Z,-2.71
2022-12-18T17:00:52.424Z,-2.66
2022-12-18T17:01:52.392Z,-2.69
2022-12-18T17:02:52.460Z,-2.66
2022-12-18T17:03:52.260Z,-2.66
2022-12-18T17:04:52.227Z,-2.63
2022-12-18T17:05:53.369Z,-2.66
2022-12-18T17:06:52.226Z,-2.65
2022-12-18T17:07:52.176Z,-2.62
2022-12-18T17:08:52.177Z,-2.65